createdAt,value
2024-03-26T00:01:13.707Z,2.90
2024-03-26T00:03:41.251Z,1.20
2024-03-26T00:06:08.698Z,1.40
2024-03-26T00:08:36.153Z,2.00
2024-03-26T00:11:03.820Z,1.50
2024-03-26T00:13:31.687Z,2.00
2024-03-26T00:15:59.247Z,1.00
2024-03-26T00:18:26.629Z,0.90
2024-03-26T00:20:54.047Z,2.00
2024-03-26T00:23:21.500Z,1.70
2024-03-26T00:25:50.289Z,1.20
2024-03-26T00:28:17.752Z,2.90
2024-03-26T00:30:45.300Z,2.00
2024-03-26T00:33:12.959Z,1.50
2024-03-26T00:35:40.441Z,0.80
2024-03-26T00:38:08.627Z,0.70
2024-03-26T00:40:36.042Z,0.40
2024-03-26T00:43:03.515Z,0.80
2024-03-26T00:45:31.100Z,1.00
2024-03-26T00:47:58.613Z,1.90
2024-03-26T00:50:26.179Z,2.10
2024-03-26T00:52:53.524Z,2.60
2024-03-26T00:55:20.945Z,1.80
2024-03-26T00:57:48.389Z,3.40
2024-03-26T01:00:16.425Z,1.40
2024-03-26T01:02:43.991Z,4.40
2024-03-26T01:05:11.723Z,1.70
2024-03-26T01:07:39.179Z,0.90
2024-03-26T01:10:07.737Z,1.60
2024-03-26T01:12:35.421Z,0.50
2024-03-26T01:15:03.181Z,0.70
2024-03-26T01:17:30.654Z,1.70
2024-03-26T01:19:58.202Z,0.70
2024-03-26T01:22:25.649Z,0.40
2024-03-26T01:24:53.208Z,1.00
2024-03-26T01:27:20.766Z,1.30
2024-03-26T01:29:48.222Z,1.30
2024-03-26T01:32:15.678Z,0.60
2024-03-26T01:34:43.438Z,1.50
2024-03-26T01:37:10.997Z,1.50
2024-03-26T01:39:38.453Z,1.10
2024-03-26T01:42:06.009Z,0.80
2024-03-26T01:44:34.180Z,2.30
2024-03-26T01:47:01.634Z,1.20
2024-03-26T01:49:31.097Z,0.50
2024-03-26T01:51:58.593Z,1.80
2024-03-26T01:54:26.151Z,2.00
2024-03-26T01:56:53.710Z,2.00
2024-03-26T01:59:21.299Z,0.50
2024-03-26T02:01:48.720Z,1.40
2024-03-26T02:04:16.482Z,1.00
2024-03-26T02:06:44.558Z,2.50
2024-03-26T02:09:12.012Z,1.70
2024-03-26T02:11:41.417Z,0.90
2024-03-26T02:14:08.864Z,0.50
2024-03-26T02:16:36.523Z,1.00
2024-03-26T02:19:03.977Z,3.40
2024-03-26T02:21:31.947Z,1.80
2024-03-26T02:23:59.503Z,1.40
2024-03-26T02:26:27.060Z,1.00
2024-03-26T02:28:57.695Z,1.00
2024-03-26T02:31:25.262Z,1.00
2024-03-26T02:33:52.713Z,1.40
2024-03-26T02:36:20.262Z,1.10
2024-03-26T02:38:47.878Z,1.70
2024-03-26T02:41:15.389Z,0.60
2024-03-26T02:43:43.240Z,0.60
2024-03-26T02:46:10.695Z,1.20
2024-03-26T02:48:38.149Z,1.50
2024-03-26T02:51:05.604Z,0.80
2024-03-26T02:53:33.470Z,0.80
2024-03-26T02:56:00.943Z,1.10
2024-03-26T02:58:28.587Z,1.40
2024-03-26T03:01:15.803Z,0.60
2024-03-26T03:03:43.263Z,1.70
2024-03-26T03:06:10.819Z,2.50
2024-03-26T03:08:38.679Z,1.30
2024-03-26T03:11:06.441Z,1.40
2024-03-26T03:13:33.900Z,2.50
2024-03-26T03:16:01.370Z,0.90
2024-03-26T03:18:28.910Z,2.40
2024-03-26T03:20:56.451Z,1.70
2024-03-26T03:23:23.891Z,1.70
2024-03-26T03:25:57.754Z,1.80
2024-03-26T03:28:25.293Z,2.60
2024-03-26T03:30:53.252Z,1.40
2024-03-26T03:33:20.812Z,0.70
2024-03-26T03:35:51.503Z,2.20
2024-03-26T03:38:18.999Z,2.00
2024-03-26T03:40:46.448Z,2.10
2024-03-26T03:43:14.318Z,1.00
2024-03-26T03:45:41.878Z,1.60
2024-03-26T03:48:10.158Z,1.40
2024-03-26T03:50:37.626Z,2.70
2024-03-26T03:53:05.373Z,1.60
2024-03-26T03:55:32.820Z,1.80
2024-03-26T03:58:00.277Z,1.40
2024-03-26T04:00:27.745Z,2.60
2024-03-26T04:02:55.197Z,3.80
2024-03-26T04:05:22.746Z,2.10
2024-03-26T04:07:50.205Z,2.90
2024-03-26T04:10:17.856Z,2.40
2024-03-26T04:12:45.310Z,1.90
2024-03-26T04:15:12.872Z,3.60
2024-03-26T04:17:40.430Z,1.90
2024-03-26T04:20:08.710Z,2.60
2024-03-26T04:22:36.159Z,1.30
2024-03-26T04:25:03.728Z,1.80
2024-03-26T04:27:31.183Z,0.70
2024-03-26T04:29:58.627Z,2.20
2024-03-26T04:32:26.396Z,2.50
2024-03-26T04:34:54.054Z,1.70
2024-03-26T04:37:23.467Z,2.10
2024-03-26T04:39:52.331Z,1.80
2024-03-26T04:42:20.719Z,1.60
2024-03-26T04:44:48.598Z,2.10
2024-03-26T04:47:16.038Z,1.90
2024-03-26T04:49:43.902Z,1.70
2024-03-26T04:52:11.456Z,1.50
2024-03-26T04:54:39.020Z,0.90
2024-03-26T04:57:06.500Z,3.80
2024-03-26T04:59:34.029Z,2.90
2024-03-26T05:02:01.482Z,4.60
2024-03-26T05:04:29.055Z,2.40
2024-03-26T05:06:56.494Z,3.70
2024-03-26T05:09:23.949Z,3.90
2024-03-26T05:11:52.043Z,3.30
2024-03-26T05:14:19.679Z,3.60
2024-03-26T05:16:47.444Z,5.20
2024-03-26T05:19:15.053Z,4.70
2024-03-26T05:21:42.420Z,3.50
2024-03-26T05:24:09.808Z,5.20
2024-03-26T05:26:37.263Z,4.30
2024-03-26T05:29:04.815Z,3.10
2024-03-26T05:31:32.280Z,3.90
2024-03-26T05:33:59.936Z,4.00
2024-03-26T05:36:28.619Z,3.50
2024-03-26T05:38:56.183Z,4.40
2024-03-26T05:41:23.662Z,4.60
2024-03-26T05:43:54.280Z,3.50
2024-03-26T05:46:21.817Z,3.30
2024-03-26T05:48:49.376Z,2.20
2024-03-26T05:51:16.831Z,3.20
2024-03-26T05:53:44.287Z,2.40
2024-03-26T05:56:12.081Z,2.00
2024-03-26T05:58:39.474Z,1.10
2024-03-26T06:01:06.942Z,1.90
2024-03-26T06:03:34.521Z,2.10
2024-03-26T06:06:02.197Z,2.10
2024-03-26T06:08:29.598Z,2.60
2024-03-26T06:10:57.099Z,2.00
2024-03-26T06:13:24.754Z,2.70
2024-03-26T06:15:52.204Z,4.70
2024-03-26T06:18:19.656Z,3.10
2024-03-26T06:20:47.525Z,2.90
2024-03-26T06:23:14.981Z,2.10
2024-03-26T06:25:43.049Z,1.90
2024-03-26T06:28:10.568Z,3.40
2024-03-26T06:30:38.790Z,2.10
2024-03-26T06:33:06.239Z,2.50
2024-03-26T06:35:33.690Z,2.90
2024-03-26T06:38:01.250Z,3.00
2024-03-26T06:40:28.806Z,2.50
2024-03-26T06:42:56.265Z,3.10
2024-03-26T06:45:23.923Z,2.40
2024-03-26T06:47:52.525Z,2.60
2024-03-26T06:50:21.095Z,2.10
2024-03-26T06:52:49.063Z,3.00
2024-03-26T06:55:17.453Z,3.20
2024-03-26T06:57:45.300Z,1.20
2024-03-26T07:00:18.459Z,1.30
2024-03-26T07:02:52.079Z,1.70
2024-03-26T07:05:20.265Z,1.80
2024-03-26T07:07:47.867Z,2.40
2024-03-26T07:10:15.667Z,1.70
2024-03-26T07:12:43.652Z,2.50
2024-03-26T07:15:12.031Z,3.60
2024-03-26T07:17:39.795Z,3.10
2024-03-26T07:20:10.642Z,2.20
2024-03-26T07:22:41.357Z,1.60
2024-03-26T07:25:10.137Z,2.60
2024-03-26T07:31:58.027Z,2.30
2024-03-26T07:34:25.666Z,1.70
2024-03-26T07:36:53.891Z,1.80
2024-03-26T07:39:21.459Z,2.90
2024-03-26T07:41:49.014Z,1.40
2024-03-26T07:44:19.472Z,1.80
2024-03-26T07:46:50.088Z,3.90
2024-03-26T07:49:18.245Z,2.00
2024-03-26T07:51:46.446Z,2.50
2024-03-26T07:54:14.117Z,3.60
2024-03-26T07:56:41.946Z,2.10
2024-03-26T07:59:29.224Z,2.70
2024-03-26T08:01:56.808Z,2.40
2024-03-26T08:04:24.444Z,1.40
2024-03-26T08:06:52.515Z,2.40
2024-03-26T08:09:20.113Z,0.70
2024-03-26T08:11:47.794Z,1.30
2024-03-26T08:14:15.495Z,0.90
2024-03-26T08:16:43.153Z,0.90
2024-03-26T08:19:11.121Z,1.80
2024-03-26T08:21:38.680Z,1.10
2024-03-26T08:24:06.547Z,0.90
2024-03-26T08:26:34.923Z,1.40
2024-03-26T08:29:02.517Z,2.30
2024-03-26T08:31:30.691Z,3.20
2024-03-26T08:33:58.315Z,2.60
2024-03-26T08:36:25.971Z,7.10
2024-03-26T08:38:54.256Z,3.10
2024-03-26T08:41:22.118Z,2.70
2024-03-26T08:43:52.733Z,0.80
2024-03-26T08:46:20.458Z,1.20
2024-03-26T08:48:48.602Z,0.90
2024-03-26T08:51:16.057Z,0.80
2024-03-26T08:53:43.520Z,1.40
2024-03-26T08:56:19.102Z,0.80
2024-03-26T08:58:53.351Z,0.40
2024-03-26T09:01:21.014Z,1.50
2024-03-26T09:03:48.568Z,1.10
2024-03-26T09:06:16.839Z,1.00
2024-03-26T09:08:44.426Z,1.30
2024-03-26T09:11:12.366Z,0.60
2024-03-26T09:13:41.664Z,1.10
2024-03-26T09:16:09.442Z,0.70
2024-03-26T09:18:36.994Z,1.30
2024-03-26T09:21:05.271Z,1.00
2024-03-26T09:23:32.826Z,0.70
2024-03-26T09:26:00.412Z,0.50
2024-03-26T09:28:29.673Z,1.60
2024-03-26T09:30:57.163Z,1.60
2024-03-26T09:33:24.823Z,1.50
2024-03-26T09:35:53.305Z,0.60
2024-03-26T09:38:32.166Z,0.50
2024-03-26T09:41:04.244Z,0.60
2024-03-26T09:43:32.175Z,0.60
2024-03-26T09:45:59.772Z,0.80
2024-03-26T09:48:28.479Z,1.10
2024-03-26T09:50:56.011Z,0.70
2024-03-26T09:53:23.754Z,1.20
2024-03-26T09:55:51.965Z,1.30
2024-03-26T09:58:19.580Z,1.00
2024-03-26T10:00:53.245Z,1.30
2024-03-26T10:03:21.608Z,0.20
2024-03-26T10:05:49.221Z,0.60
2024-03-26T10:08:16.915Z,0.40
2024-03-26T10:10:44.576Z,0.70
2024-03-26T10:13:13.161Z,0.70
2024-03-26T10:15:41.084Z,0.60
2024-03-26T10:18:09.296Z,1.10
2024-03-26T10:20:38.391Z,1.60
2024-03-26T10:23:06.874Z,1.70
2024-03-26T10:25:35.309Z,2.00
2024-03-26T10:28:03.505Z,2.50
2024-03-26T10:30:31.185Z,0.90
2024-03-26T10:33:00.125Z,0.70
2024-03-26T10:35:31.160Z,0.90
2024-03-26T10:38:06.777Z,0.60
2024-03-26T10:40:40.507Z,1.60
2024-03-26T10:43:10.642Z,1.20
2024-03-26T10:45:49.523Z,0.90
2024-03-26T10:48:30.843Z,0.70
2024-03-26T10:51:00.134Z,1.00
2024-03-26T10:53:30.925Z,0.40
2024-03-26T10:55:59.218Z,0.40
2024-03-26T10:58:27.272Z,0.90
2024-03-26T11:00:54.805Z,0.40
2024-03-26T11:03:22.336Z,1.30
2024-03-26T11:05:49.873Z,0.70
2024-03-26T11:08:20.325Z,0.70
2024-03-26T11:11:01.537Z,0.70
2024-03-26T11:13:29.614Z,0.50
2024-03-26T11:15:57.176Z,0.30
2024-03-26T11:18:32.712Z,0.30
2024-03-26T11:21:04.960Z,1.90
2024-03-26T11:23:52.865Z,0.60
2024-03-26T11:26:24.849Z,0.60
2024-03-26T11:28:52.343Z,0.40
2024-03-26T11:31:20.462Z,0.30
2024-03-26T11:33:54.224Z,0.70
2024-03-26T11:36:21.911Z,0.60
2024-03-26T11:38:49.622Z,0.30
2024-03-26T11:41:17.197Z,0.40
2024-03-26T11:43:44.675Z,0.40
2024-03-26T11:46:14.151Z,0.30
2024-03-26T11:48:41.853Z,1.50
2024-03-26T11:51:09.483Z,1.10
2024-03-26T11:53:40.137Z,1.10
2024-03-26T11:56:07.981Z,1.00
2024-03-26T11:58:38.006Z,0.50
2024-03-26T12:01:06.985Z,2.10
2024-03-26T12:03:37.219Z,0.70
2024-03-26T12:06:06.042Z,0.20
2024-03-26T12:08:33.610Z,1.00
2024-03-26T12:11:02.042Z,0.90
2024-03-26T12:13:29.601Z,0.40
2024-03-26T12:16:00.708Z,0.40
2024-03-26T12:18:28.250Z,0.90
2024-03-26T12:20:57.389Z,0.60
2024-03-26T12:23:26.580Z,0.30
2024-03-26T12:25:56.659Z,0.30
2024-03-26T12:28:24.471Z,1.40
2024-03-26T12:30:52.955Z,1.30
2024-03-26T12:33:20.819Z,0.50
2024-03-26T12:35:48.580Z,0.30
2024-03-26T12:38:16.084Z,0.70
2024-03-26T12:40:43.639Z,0.90
2024-03-26T12:43:11.182Z,0.70
2024-03-26T12:45:38.812Z,0.80
2024-03-26T12:48:07.855Z,0.60
2024-03-26T12:50:35.581Z,0.80
2024-03-26T12:53:03.231Z,0.30
2024-03-26T12:55:30.898Z,0.90
2024-03-26T13:09:24.777Z,0.50
2024-03-26T13:11:53.469Z,0.50
2024-03-26T13:14:21.134Z,1.20
2024-03-26T13:16:48.691Z,0.40
2024-03-26T13:19:16.249Z,0.50
2024-03-26T13:21:46.532Z,0.90
2024-03-26T13:24:14.132Z,1.70
2024-03-26T13:26:41.713Z,0.40
2024-03-26T13:29:09.562Z,0.30
2024-03-26T13:31:37.639Z,0.40
2024-03-26T13:34:05.508Z,0.80
2024-03-26T13:36:33.562Z,0.30
2024-03-26T13:39:01.645Z,0.10
2024-03-26T13:41:29.297Z,0.70
2024-03-26T13:43:56.989Z,0.40
2024-03-26T13:46:24.623Z,0.50
2024-03-26T13:48:52.195Z,0.90
2024-03-26T13:51:19.959Z,0.50
2024-03-26T13:53:47.629Z,0.70
2024-03-26T13:56:15.265Z,0.50
2024-03-26T13:58:42.824Z,1.30
2024-03-26T14:01:10.488Z,0.70
2024-03-26T14:03:38.040Z,0.40
2024-03-26T14:06:05.713Z,0.50
2024-03-26T14:08:34.182Z,0.50
2024-03-26T14:11:02.378Z,0.60
2024-03-26T14:13:30.343Z,0.50
2024-03-26T14:15:57.887Z,0.50
2024-03-26T14:18:25.343Z,0.60
2024-03-26T14:20:52.879Z,0.70
2024-03-26T14:23:20.882Z,0.70
2024-03-26T14:25:49.856Z,0.60
2024-03-26T14:28:17.570Z,1.50
2024-03-26T14:30:45.063Z,1.50
2024-03-26T14:33:12.691Z,1.10
2024-03-26T14:35:40.429Z,1.40
2024-03-26T14:38:08.173Z,0.80
2024-03-26T14:40:35.825Z,0.50
2024-03-26T14:43:03.493Z,0.60
2024-03-26T14:45:32.171Z,1.70
2024-03-26T14:48:00.545Z,0.60
2024-03-26T14:50:28.729Z,0.60
2024-03-26T14:52:56.686Z,1.10
2024-03-26T14:55:24.864Z,0.40
2024-03-26T14:57:52.434Z,0.80
2024-03-26T15:00:20.625Z,0.60
2024-03-26T15:02:49.835Z,1.20
2024-03-26T15:05:20.357Z,0.70
2024-03-26T15:07:52.660Z,0.20
2024-03-26T15:10:20.280Z,1.10
2024-03-26T15:12:47.945Z,0.70
2024-03-26T15:15:16.513Z,0.80
2024-03-26T15:17:59.231Z,0.40
2024-03-26T15:20:27.077Z,0.60
2024-03-26T15:22:54.682Z,1.30
2024-03-26T15:25:23.314Z,1.40
2024-03-26T15:28:09.637Z,0.30
2024-03-26T15:30:55.822Z,1.60
2024-03-26T15:33:23.678Z,1.70
2024-03-26T15:35:51.427Z,1.30
2024-03-26T15:38:21.651Z,0.80
2024-03-26T15:40:50.139Z,0.60
2024-03-26T15:43:18.730Z,1.00
2024-03-26T15:45:48.110Z,0.60
2024-03-26T15:48:17.120Z,1.60
2024-03-26T15:50:44.763Z,1.80
2024-03-26T15:53:12.293Z,2.90
2024-03-26T15:55:40.096Z,2.20
2024-03-26T15:58:07.643Z,1.50
2024-03-26T16:00:35.724Z,1.60
2024-03-26T16:03:03.431Z,0.80
2024-03-26T16:05:31.548Z,1.40
2024-03-26T16:07:59.145Z,2.70
2024-03-26T16:12:58.496Z,2.10
2024-03-26T16:15:26.086Z,3.20
2024-03-26T16:17:54.165Z,1.40
2024-03-26T16:20:21.642Z,1.90
2024-03-26T16:22:49.176Z,1.80
2024-03-26T16:25:16.752Z,2.50
2024-03-26T16:27:45.793Z,2.70
2024-03-26T16:30:13.641Z,2.90
2024-03-26T16:32:41.254Z,1.30
2024-03-26T16:35:09.725Z,2.30
2024-03-26T16:37:37.174Z,3.60
2024-03-26T16:40:07.916Z,2.60
2024-03-26T16:42:35.879Z,3.20
2024-03-26T16:45:04.093Z,3.60
2024-03-26T16:47:31.710Z,2.90
2024-03-26T16:49:59.302Z,4.50
2024-03-26T16:52:27.354Z,2.20
2024-03-26T16:54:55.015Z,2.10
2024-03-26T16:57:22.560Z,2.30
2024-03-26T16:59:50.116Z,2.30
2024-03-26T17:02:17.983Z,2.10
2024-03-26T17:04:47.287Z,1.60
2024-03-26T17:07:15.270Z,1.30
2024-03-26T17:09:42.735Z,1.90
2024-03-26T17:12:10.333Z,2.90
2024-03-26T17:14:38.256Z,2.00
2024-03-26T17:17:13.443Z,1.20
2024-03-26T17:19:42.179Z,1.90
2024-03-26T17:22:10.561Z,2.20
2024-03-26T17:24:37.955Z,1.60
2024-03-26T17:27:05.644Z,3.80
2024-03-26T17:29:33.592Z,4.10
2024-03-26T17:32:01.266Z,2.70
2024-03-26T17:34:29.038Z,2.00
2024-03-26T17:36:56.800Z,2.10
2024-03-26T17:39:25.216Z,1.80
2024-03-26T17:41:52.838Z,1.70
2024-03-26T17:44:20.716Z,2.30
2024-03-26T17:46:49.080Z,2.20
2024-03-26T17:49:16.843Z,2.00
2024-03-26T17:51:44.521Z,1.80
2024-03-26T17:54:12.276Z,4.80
2024-03-26T17:56:39.825Z,6.20
2024-03-26T17:59:07.689Z,4.50
2024-03-26T18:01:35.890Z,3.50
2024-03-26T18:04:03.423Z,3.40
2024-03-26T18:06:30.899Z,2.90
2024-03-26T18:08:58.746Z,3.00
2024-03-26T18:11:26.401Z,3.30
2024-03-26T18:13:53.956Z,4.70
2024-03-26T18:16:21.419Z,2.80
2024-03-26T18:18:49.690Z,3.10
2024-03-26T18:21:17.450Z,2.50
2024-03-26T18:23:45.044Z,2.40
2024-03-26T18:26:12.824Z,3.20
2024-03-26T18:28:41.192Z,2.90
2024-03-26T18:31:10.769Z,2.90
2024-03-26T18:33:38.499Z,1.80
2024-03-26T18:36:06.387Z,3.60
2024-03-26T18:38:34.977Z,2.00
2024-03-26T18:41:06.780Z,2.50
2024-03-26T18:43:38.684Z,1.70
2024-03-26T18:46:12.776Z,1.90
2024-03-26T18:48:40.517Z,1.90
2024-03-26T18:51:08.125Z,3.00
2024-03-26T18:53:37.084Z,3.20
2024-03-26T18:56:12.762Z,1.80
2024-03-26T18:58:41.032Z,1.60
2024-03-26T19:01:13.197Z,4.00
2024-03-26T19:03:41.062Z,3.70
2024-03-26T19:06:09.233Z,3.60
2024-03-26T19:08:36.896Z,2.60
2024-03-26T19:11:05.067Z,3.70
2024-03-26T19:13:33.236Z,3.80
2024-03-26T19:16:02.232Z,2.60
2024-03-26T19:18:32.653Z,4.00
2024-03-26T19:21:01.748Z,4.00
2024-03-26T19:23:32.232Z,3.10
2024-03-26T19:26:05.938Z,2.00
2024-03-26T19:28:33.845Z,4.40
2024-03-26T19:31:04.176Z,3.90
2024-03-26T19:33:31.826Z,3.60
2024-03-26T19:36:07.067Z,6.60
2024-03-26T19:38:35.134Z,5.40
2024-03-26T19:41:03.508Z,4.00
2024-03-26T19:43:32.100Z,4.80
2024-03-26T19:46:04.947Z,3.30
2024-03-26T19:48:32.865Z,4.30
2024-03-26T19:51:01.006Z,3.50
2024-03-26T19:53:28.980Z,4.20
2024-03-26T19:55:58.896Z,5.00
2024-03-26T19:58:26.426Z,4.30
2024-03-26T20:01:03.864Z,5.50
2024-03-26T20:03:31.440Z,3.20
2024-03-26T20:06:00.666Z,6.90
2024-03-26T20:08:28.565Z,5.10
2024-03-26T20:10:56.837Z,5.00
2024-03-26T20:13:25.210Z,4.70
2024-03-26T20:15:53.079Z,5.60
2024-03-26T20:18:20.746Z,4.70
2024-03-26T20:20:57.816Z,6.40
2024-03-26T20:23:26.295Z,5.50
2024-03-26T20:26:08.472Z,3.80
2024-03-26T20:28:36.371Z,5.60
2024-03-26T20:31:12.828Z,4.60
2024-03-26T20:33:40.648Z,3.40
2024-03-26T20:36:08.658Z,4.40
2024-03-26T20:38:36.322Z,4.80
2024-03-26T20:41:05.172Z,3.70
2024-03-26T20:43:33.379Z,4.10
2024-03-26T20:46:02.165Z,4.10
2024-03-26T20:48:30.163Z,5.80
2024-03-26T20:50:58.413Z,6.40
2024-03-26T20:53:26.792Z,3.50
2024-03-26T20:55:54.344Z,2.70
2024-03-26T20:58:21.902Z,3.60
2024-03-26T21:00:49.460Z,3.80
2024-03-26T21:03:17.139Z,3.80
2024-03-26T21:05:44.781Z,2.50
2024-03-26T21:08:12.347Z,4.10
2024-03-26T21:10:39.941Z,2.20
2024-03-26T21:13:07.730Z,3.40
2024-03-26T21:15:35.222Z,2.00
2024-03-26T21:18:11.590Z,2.70
2024-03-26T21:20:47.431Z,6.50
2024-03-26T21:23:14.987Z,3.00
2024-03-26T21:25:42.647Z,3.50
2024-03-26T21:28:10.214Z,5.60
2024-03-26T21:30:37.843Z,4.60
2024-03-26T21:33:08.803Z,2.60
2024-03-26T21:35:39.433Z,1.90
2024-03-26T21:38:06.988Z,2.20
2024-03-26T21:40:34.631Z,2.50
2024-03-26T21:43:03.026Z,1.30
2024-03-26T21:45:30.536Z,2.20
2024-03-26T21:47:58.243Z,1.20
2024-03-26T21:50:25.907Z,3.80
2024-03-26T21:52:53.464Z,3.60
2024-03-26T21:55:21.027Z,1.70
2024-03-26T21:57:49.193Z,2.50
2024-03-26T22:00:18.472Z,1.80
2024-03-26T22:02:48.200Z,1.40
2024-03-26T22:05:15.862Z,1.00
2024-03-26T22:07:43.539Z,1.90
2024-03-26T22:10:11.091Z,3.20
2024-03-26T22:12:38.639Z,1.90
2024-03-26T22:15:07.015Z,2.10
2024-03-26T22:17:34.488Z,1.70
2024-03-26T22:20:03.767Z,2.30
2024-03-26T22:22:31.222Z,4.90
2024-03-26T22:24:58.797Z,7.90
2024-03-26T22:27:26.354Z,4.70
2024-03-26T22:29:53.892Z,3.70
2024-03-26T22:32:21.322Z,3.30
2024-03-26T22:34:48.764Z,1.70
2024-03-26T22:37:16.261Z,1.60
2024-03-26T22:39:43.715Z,1.30
2024-03-26T22:42:11.174Z,2.20
2024-03-26T22:44:39.244Z,2.00
2024-03-26T22:47:07.616Z,1.70
2024-03-26T22:49:35.072Z,1.30
2024-03-26T22:52:02.536Z,2.60
2024-03-26T22:54:30.188Z,1.10
2024-03-26T22:56:57.748Z,1.00
2024-03-26T22:59:25.406Z,0.90
2024-03-26T23:01:53.171Z,0.90
2024-03-26T23:04:20.625Z,1.10
2024-03-26T23:06:48.077Z,1.40
2024-03-26T23:09:15.540Z,2.00
2024-03-26T23:11:42.989Z,1.60
2024-03-26T23:14:10.656Z,3.80
2024-03-26T23:16:38.103Z,2.70
2024-03-26T23:19:09.281Z,3.40
2024-03-26T23:21:37.027Z,3.30
2024-03-26T23:24:05.498Z,3.20
2024-03-26T23:26:32.948Z,2.90
2024-03-26T23:29:00.511Z,3.90
2024-03-26T23:31:28.469Z,2.30
2024-03-26T23:33:56.026Z,2.50
2024-03-26T23:36:23.490Z,1.50
2024-03-26T23:38:50.941Z,2.40
2024-03-26T23:41:18.367Z,3.40
2024-03-26T23:43:45.851Z,1.70
2024-03-26T23:46:13.264Z,2.40
2024-03-26T23:48:40.760Z,2.30
2024-03-26T23:51:09.550Z,2.00
2024-03-26T23:53:37.104Z,1.60
2024-03-26T23:56:05.459Z,2.20
2024-03-26T23:58:33.143Z,1.60
